Norfolk International Airport
KORF : now visible

Airfield :











YOU CAN JOIN US ON...

 
LOGIN :

Register | Disclaimer

   EN    FR    IT 

 









Legend :    VFR   Marginal VFR   IFR   Intensive IFR   Very Intensive IFR
Visi :
Ceiling :
>= 8 km
>= 3000ft
5 to 8 km
1000 to 3000 ft
1500m to 5 km
500 to 1000 ft
800 to 1500m
200 to 500 ft
< 800m
< 200 ft
Symbols :   Thunderstorms  Fog  Heavy snow  Heavy precipitations  Wind > 20 kt






- Airport Elevation : 26 ft
- IATA code : ORF


KORF - Norfolk International

CURRENT METAR :
  • 112118Z 21010G19KT 1/2SM R05/1800V3500FT +TSRA FG BKN014 BKN048 OVC080 25/23 A2999 RMK AO2 LTG DSNT S AND SW P0058 T02500228

EXPIRED METARs :
  • 112054Z 07010G19KT 4SM TSRA FEW050 BKN080 BKN100 26/22 A2997 RMK AO2 LTG DSNT E-SW P0000 T02560222
  • 112006Z 08009KT 8SM -TSRA FEW032 BKN085 OVC100 28/24 A2995 RMK AO2 LTG DSNT E TSB00 P0001 T02830239
  • 111954Z VRB04KT 3SM VCTS -RA FEW041 SCT070 OVC090 28/23 A2995 RMK AO2 P0001 T02780233
  • 111851Z 36006KT 10SM BKN042 OVC060 31/23 A2996 RMK AO2 SLP143 T03110233

TAF KORF
Valid from the 11 at 20:00 until the 12 at 18:00 UTC


111956Z 1120/1218 20007KT P6SM SCT040
TEMPO 1120/1122 VRB20KT 1SM TSRA BKN025CB
FM112300 18006KT P6SM SCT120
FM120500 VRB03KT P6SM BKN100
FM121400 18005KT P6SM SCT025
KZDC FIR / North America



MET'MAP, your aeronautical weather chart ! - Copyright ORBIFLY December 2007 - Disclaimer

ORBIFLY MET'MAP TEAM :

Programming & Development : Alexandra Zaïnal
Concept & original design : Baudouin d'Aumeries
Assistance for programming : Marc-Olivier Méhu
Technical & hardware support : Manuel Goepfert

Contact : metmap@orbifly.com




SOURCES & CREDITS :

   NOAA       Earth
Advisory